KGED

Delaware Coastal Airport

Georgetown, Delaware, USA
METAR KGED 140454Z AUTO 27003KT 10SM CLR 08/03 A3024 RMK AO2 SLP239 T00830028 401890083 $
Observed Flight Rules
Nov-14 @ 04:54 UTC (13 minutes ago) Visual Flight Rules
Wind Visibility Clouds
270° at 3 knots 10 miles
  • Clear skies
Temperatures Readings
Current 8°C / 46°F
Dewpoint 3°C / 37°F
Humidity 71%
Altimeter 30.24" Hg
Pressure 1023.9 hPa
Elevation 19
METAR KGED 140454Z AUTO 27003KT 10SM CLR 08/03 A3024 RMK AO2 SLP239 T00830028 401890083 $
Observed Flight Rules
Nov-14 @ 04:54 UTC
(13 minutes ago)
VFR
Wind Visibility
270° at 3 knots 10 miles
Clouds
  • Clear skies
Temperature Dewpoint
8°C / 46°F 3°C / 37°F
Humidity Altimeter Pressure
71% 30.24" Hg 1023.9 hPa